Zearing, IA (50278)

7:45 AM CDT on June 02, 2015 (GMT -0500)
Saint Anthony West | | Change Station
CLOSE
Current Station
Personal Weather Station
Location: St. Anthony, IA
Elevation: 1040 ft
Nearby Weather Stations

Elev 1040 ft 42.12 °N, 93.20 °W | Updated 2 minutes ago

Clear
Clear
59.4 °F
Feels Like 59.4 °F
N
8.3
Wind Variable Wind from SE

Today
High -- | Low -- °F
--% Chance of Precip.
Yesterday
High -- | Low -- °F
Precip. -- in
5:39 AM 8:43 PM
Full, 100% visible
Pressure 30.11 in
Visibility 7.0 miles
Clouds Clear
Dew Point 54 °F
Humidity 83%
Rainfall 0.00 in
Snow Depth Not available.
UV 1 out of 12
Pollen 7.40 out of 12
Air Quality Not available.
Flu Activity No Activity
METAR KAMW 021153Z AUTO 15005KT 7SM CLR 12/11 A3012 RMK AO2 SLP195 T01170111 10139 20100 53006

More Conditions Fewer Conditions

Pressure 30.11 in
Visibility 7.0 miles
Clouds Clear
Dew Point 54 °F
Humidity 83%
Rainfall 0.00 in
Snow Depth Not available.
UV 1 out of 12
Pollen 7.40 out of 12
Air Quality Not available.
Flu Activity No Activity
METAR KAMW 021153Z AUTO 15005KT 7SM CLR 12/11 A3012 RMK AO2 SLP195 T01170111 10139 20100 53006

More Conditions Fewer Conditions

10-Day Weather Forecast

Almanac

Astronomy

Jun. 02, 2015 Rise Set
Actual Time
Civil Twilight
Nautical Twilight
Astronomical Twilight
Moon
Length of Visible Light
Length of Day
Tomorrow will be .
, % of the Moon is Illuminated

Today's Extremes

State Highs State Lows

Community

WunderPhotos

Upload Photos

1,825,892 photos uploaded!

WunderBlogs® & News

Nearby

Air Quality

  Air Quality AQ Index Pollutant
Not available.

Snow Depth

Station Depth Elevation

Earthquake Activity

City Distance Mag. Time & Date
Minimum magnitude displayed is 2.5.

Coastal Water Temperatures

Place Temperature

Stations

Nearby Weather Stations

Station Location Temp. Windchill Dew Point Humidity Wind Precip. Elev Updated Type